createdAt,value
2023-03-25T00:00:32.924Z,3.17
2023-03-25T00:03:00.703Z,1.95
2023-03-25T00:05:28.222Z,2.47
2023-03-25T00:07:55.636Z,2.50
2023-03-25T00:10:23.184Z,2.88
2023-03-25T00:12:51.748Z,3.15
2023-03-25T00:15:19.728Z,2.03
2023-03-25T00:17:47.356Z,3.72
2023-03-25T00:20:14.969Z,1.33
2023-03-25T00:22:44.283Z,2.42
2023-03-25T00:25:19.124Z,2.53
2023-03-25T00:27:49.102Z,1.55
2023-03-25T00:30:17.918Z,1.90
2023-03-25T00:32:49.947Z,1.88
2023-03-25T00:35:24.316Z,2.60
2023-03-25T00:37:57.912Z,2.15
2023-03-25T00:40:29.638Z,2.42
2023-03-25T00:43:00.023Z,1.50
2023-03-25T00:45:28.524Z,2.22
2023-03-25T00:47:56.378Z,2.47
2023-03-25T00:50:25.860Z,3.50
2023-03-25T00:52:54.532Z,2.83
2023-03-25T00:55:22.331Z,2.22
2023-03-25T00:57:49.587Z,3.13
2023-03-25T01:00:18.766Z,1.98
2023-03-25T01:02:46.311Z,2.83
2023-03-25T01:05:13.719Z,1.25
2023-03-25T01:07:42.046Z,2.28
2023-03-25T01:10:09.994Z,2.13
2023-03-25T01:12:37.719Z,2.38
2023-03-25T01:15:05.871Z,1.58
2023-03-25T01:17:33.310Z,2.45
2023-03-25T01:20:00.635Z,2.30
2023-03-25T01:22:28.072Z,1.63
2023-03-25T01:24:55.433Z,1.73
2023-03-25T01:27:24.687Z,2.72
2023-03-25T01:29:54.548Z,3.15
2023-03-25T01:32:21.907Z,2.65
2023-03-25T01:34:49.648Z,2.00
2023-03-25T01:37:18.179Z,2.58
2023-03-25T01:39:45.772Z,2.80
2023-03-25T01:42:13.121Z,1.58
2023-03-25T01:44:41.127Z,2.47
2023-03-25T01:47:08.929Z,2.58
2023-03-25T01:49:44.235Z,2.80
2023-03-25T01:52:18.126Z,1.77
2023-03-25T01:54:47.311Z,2.17
2023-03-25T01:57:20.586Z,2.00
2023-03-25T01:59:49.601Z,2.45
2023-03-25T02:02:18.771Z,1.67
2023-03-25T02:04:58.774Z,2.50
2023-03-25T02:07:34.331Z,1.88
2023-03-25T02:10:06.703Z,2.65
2023-03-25T02:12:34.013Z,1.98
2023-03-25T02:15:06.424Z,2.13
2023-03-25T02:18:02.768Z,2.58
2023-03-25T02:21:02.958Z,2.33
2023-03-25T02:23:58.395Z,1.33
2023-03-25T02:26:45.186Z,1.70
2023-03-25T02:29:24.150Z,1.88
2023-03-25T02:32:29.038Z,2.58
2023-03-25T02:35:11.536Z,2.03
2023-03-25T02:38:06.303Z,2.03
2023-03-25T02:41:01.549Z,1.38
2023-03-25T02:43:39.977Z,1.98
2023-03-25T02:46:15.674Z,2.42
2023-03-25T02:48:51.649Z,3.83
2023-03-25T02:51:27.323Z,2.60
2023-03-25T02:53:58.469Z,1.88
2023-03-25T02:56:32.787Z,2.28
2023-03-25T02:59:03.829Z,2.42
2023-03-25T03:01:35.155Z,2.38
2023-03-25T03:04:12.919Z,2.40
2023-03-25T03:06:43.103Z,1.20
2023-03-25T03:09:25.650Z,2.22
2023-03-25T03:12:12.741Z,1.67
2023-03-25T03:15:07.448Z,2.80
2023-03-25T03:17:56.213Z,2.55
2023-03-25T03:20:44.105Z,1.40
2023-03-25T03:25:53.488Z,1.83
2023-03-25T03:28:55.402Z,2.50
2023-03-25T03:31:48.272Z,2.30
2023-03-25T03:34:48.376Z,2.38
2023-03-25T03:37:20.892Z,1.50
2023-03-25T03:39:49.689Z,1.80
2023-03-25T03:42:31.031Z,2.15
2023-03-25T03:45:07.471Z,2.83
2023-03-25T03:47:41.875Z,2.28
2023-03-25T03:50:14.497Z,2.13
2023-03-25T03:52:47.348Z,1.80
2023-03-25T03:55:21.209Z,2.47
2023-03-25T03:57:58.007Z,2.30
2023-03-25T04:00:43.119Z,1.85
2023-03-25T04:03:24.563Z,1.65
2023-03-25T04:06:08.022Z,2.28
2023-03-25T04:08:47.014Z,2.45
2023-03-25T04:11:22.497Z,1.80
2023-03-25T04:13:53.927Z,2.13
2023-03-25T04:16:23.250Z,2.80
2023-03-25T04:18:53.507Z,3.20
2023-03-25T04:21:21.902Z,2.72
2023-03-25T04:23:49.911Z,1.90
2023-03-25T04:26:17.714Z,2.38
2023-03-25T04:28:45.314Z,2.17
2023-03-25T04:31:15.747Z,2.38
2023-03-25T04:33:48.642Z,2.90
2023-03-25T04:36:16.695Z,2.35
2023-03-25T04:38:47.148Z,3.17
2023-03-25T04:41:15.104Z,3.55
2023-03-25T04:43:45.120Z,1.92
2023-03-25T04:46:15.170Z,2.45
2023-03-25T04:48:45.118Z,1.77
2023-03-25T04:51:14.077Z,2.05
2023-03-25T04:53:42.957Z,2.92
2023-03-25T04:56:16.290Z,1.48
2023-03-25T04:58:44.781Z,3.10
2023-03-25T05:01:30.475Z,2.00
2023-03-25T05:04:06.889Z,2.65
2023-03-25T05:06:38.418Z,2.38
2023-03-25T05:09:07.968Z,2.53
2023-03-25T05:11:41.954Z,2.25
2023-03-25T05:14:11.278Z,2.35
2023-03-25T05:16:39.398Z,1.58
2023-03-25T05:19:07.789Z,3.50
2023-03-25T05:21:36.382Z,2.22
2023-03-25T05:24:08.278Z,2.85
2023-03-25T05:26:36.805Z,3.58
2023-03-25T05:29:06.333Z,2.45
2023-03-25T05:31:34.159Z,4.25
2023-03-25T05:34:02.189Z,2.63
2023-03-25T05:36:29.683Z,2.00
2023-03-25T05:38:58.292Z,3.25
2023-03-25T05:41:38.761Z,2.42
2023-03-25T05:44:08.197Z,2.03
2023-03-25T05:46:36.011Z,2.97
2023-03-25T05:49:04.132Z,2.67
2023-03-25T05:51:37.791Z,2.53
2023-03-25T05:54:11.845Z,2.45
2023-03-25T05:56:40.118Z,3.47
2023-03-25T05:59:08.335Z,2.40
2023-03-25T06:01:39.357Z,3.30
2023-03-25T06:04:10.158Z,2.33
2023-03-25T06:06:38.032Z,3.10
2023-03-25T06:09:06.178Z,3.20
2023-03-25T06:11:40.239Z,2.28
2023-03-25T06:14:08.178Z,2.90
2023-03-25T06:16:36.116Z,1.80
2023-03-25T06:19:04.024Z,3.10
2023-03-25T06:21:34.976Z,3.53
2023-03-25T06:24:02.921Z,5.95
2023-03-25T06:26:32.672Z,2.95
2023-03-25T06:29:02.635Z,2.47
2023-03-25T06:31:34.242Z,2.70
2023-03-25T06:34:02.480Z,3.13
2023-03-25T06:36:29.958Z,3.03
2023-03-25T06:38:58.459Z,2.88
2023-03-25T06:41:26.118Z,2.70
2023-03-25T06:44:13.776Z,2.42
2023-03-25T06:46:44.230Z,2.55
2023-03-25T06:49:16.133Z,3.20
2023-03-25T06:51:43.661Z,3.05
2023-03-25T06:54:11.054Z,2.97
2023-03-25T06:56:38.852Z,2.88
2023-03-25T06:59:06.418Z,2.72
2023-03-25T07:01:33.720Z,1.92
2023-03-25T07:04:01.153Z,4.70
2023-03-25T07:06:28.498Z,2.85
2023-03-25T07:08:55.878Z,2.72
2023-03-25T07:11:27.394Z,2.67
2023-03-25T07:13:55.313Z,3.47
2023-03-25T07:16:23.740Z,1.92
2023-03-25T07:18:51.594Z,1.77
2023-03-25T07:21:19.252Z,2.35
2023-03-25T07:23:46.638Z,2.53
2023-03-25T07:26:13.906Z,1.48
2023-03-25T07:28:41.604Z,3.97
2023-03-25T07:31:12.938Z,3.53
2023-03-25T07:33:41.582Z,3.50
2023-03-25T07:36:11.890Z,5.18
2023-03-25T07:38:39.279Z,3.25
2023-03-25T07:41:08.157Z,1.80
2023-03-25T07:43:35.713Z,2.13
2023-03-25T07:46:22.866Z,2.05
2023-03-25T07:48:51.556Z,2.53
2023-03-25T07:51:18.891Z,3.22
2023-03-25T07:53:46.856Z,2.15
2023-03-25T07:56:15.540Z,3.33
2023-03-25T07:58:44.442Z,4.20
2023-03-25T08:01:12.673Z,3.63
2023-03-25T08:03:41.349Z,2.83
2023-03-25T08:06:09.379Z,1.35
2023-03-25T08:08:37.036Z,2.97
2023-03-25T08:11:04.885Z,3.00
2023-03-25T08:13:32.774Z,3.25
2023-03-25T08:16:00.356Z,2.63
2023-03-25T08:18:27.786Z,2.20
2023-03-25T08:20:55.755Z,2.55
2023-03-25T08:23:23.530Z,4.75
2023-03-25T08:25:51.843Z,3.70
2023-03-25T08:28:25.890Z,2.35
2023-03-25T08:30:55.388Z,2.70
2023-03-25T08:33:27.335Z,1.75
2023-03-25T08:36:01.681Z,2.45
2023-03-25T08:38:34.654Z,2.17
2023-03-25T08:41:03.471Z,2.05
2023-03-25T08:43:31.041Z,1.92
2023-03-25T08:45:58.625Z,2.97
2023-03-25T08:48:28.631Z,2.42
2023-03-25T08:50:56.427Z,3.08
2023-03-25T08:53:24.152Z,1.80
2023-03-25T08:56:20.457Z,2.55
2023-03-25T08:58:48.130Z,3.97
2023-03-25T09:01:15.956Z,3.28
2023-03-25T09:03:46.816Z,3.08
2023-03-25T09:06:14.618Z,2.55
2023-03-25T09:08:42.191Z,2.03
2023-03-25T09:11:09.720Z,2.30
2023-03-25T09:13:37.112Z,3.88
2023-03-25T09:16:06.660Z,2.75
2023-03-25T09:18:41.932Z,2.80
2023-03-25T09:21:12.163Z,2.10
2023-03-25T09:23:42.257Z,3.42
2023-03-25T09:26:09.859Z,2.90
2023-03-25T09:28:39.582Z,2.78
2023-03-25T09:31:11.635Z,4.22
2023-03-25T09:33:47.632Z,3.13
2023-03-25T09:36:21.631Z,2.55
2023-03-25T09:38:54.083Z,3.03
2023-03-25T09:41:42.528Z,2.35
2023-03-25T09:44:12.857Z,2.75
2023-03-25T09:46:44.403Z,1.77
2023-03-25T09:49:19.830Z,1.95
2023-03-25T09:51:51.034Z,2.40
2023-03-25T09:54:30.592Z,2.05
2023-03-25T09:57:03.092Z,1.92
2023-03-25T10:00:17.458Z,2.65
2023-03-25T10:02:54.373Z,2.70
2023-03-25T10:05:45.278Z,2.35
2023-03-25T10:08:57.425Z,2.97
2023-03-25T10:11:42.688Z,1.70
2023-03-25T10:14:43.483Z,1.80
2023-03-25T10:18:15.507Z,2.20
2023-03-25T10:21:38.974Z,2.58
2023-03-25T10:24:46.565Z,2.05
2023-03-25T10:27:46.143Z,2.47
2023-03-25T10:30:45.790Z,2.58
2023-03-25T10:42:26.940Z,1.80
2023-03-25T10:43:39.171Z,2.67
2023-03-25T10:46:51.479Z,1.45
2023-03-25T10:52:15.930Z,2.58
2023-03-25T10:55:06.643Z,2.28
2023-03-25T10:57:34.732Z,1.60
2023-03-25T11:00:47.713Z,2.65
2023-03-25T11:08:24.605Z,2.05
2023-03-25T11:11:22.340Z,2.38
2023-03-25T11:14:50.605Z,2.38
2023-03-25T11:17:21.797Z,1.20
2023-03-25T11:20:37.964Z,1.65
2023-03-25T11:26:54.359Z,1.40
2023-03-25T11:29:33.241Z,0.85
2023-03-25T11:32:25.749Z,2.05
2023-03-25T11:34:58.741Z,1.60
2023-03-25T11:37:38.647Z,1.63
2023-03-25T11:40:18.752Z,1.85
2023-03-25T11:43:22.041Z,2.35
2023-03-25T11:45:54.218Z,2.13
2023-03-25T11:54:30.422Z,2.08
2023-03-25T11:57:40.725Z,2.67
2023-03-25T12:03:31.425Z,1.13
2023-03-25T12:06:05.488Z,1.23
2023-03-25T12:08:52.245Z,1.90
2023-03-25T12:12:04.019Z,1.55
2023-03-25T12:15:24.646Z,2.30
2023-03-25T12:18:02.047Z,1.85
2023-03-25T12:21:02.588Z,2.35
2023-03-25T12:23:41.371Z,1.60
2023-03-25T12:26:34.610Z,0.73
2023-03-25T12:29:20.868Z,1.75
2023-03-25T12:32:34.720Z,2.60
2023-03-25T12:35:28.445Z,2.25
2023-03-25T12:38:14.980Z,2.58
2023-03-25T12:40:45.876Z,1.60
2023-03-25T12:43:46.189Z,1.60
2023-03-25T12:47:00.618Z,1.80
2023-03-25T12:49:56.063Z,2.20
2023-03-25T12:52:29.273Z,1.80
2023-03-25T12:55:02.606Z,1.85
2023-03-25T12:58:05.304Z,1.90
2023-03-25T13:00:51.390Z,1.42
2023-03-25T13:03:25.150Z,1.88
2023-03-25T13:06:09.596Z,2.25
2023-03-25T13:08:48.180Z,1.80
2023-03-25T13:11:21.280Z,1.80
2023-03-25T13:13:51.428Z,2.70
2023-03-25T13:16:23.749Z,2.58
2023-03-25T13:19:15.318Z,1.90
2023-03-25T13:21:50.660Z,1.95
2023-03-25T13:24:38.743Z,2.53
2023-03-25T13:27:08.559Z,2.47
2023-03-25T13:29:47.578Z,1.65
2023-03-25T13:32:29.350Z,2.00
2023-03-25T13:35:09.157Z,1.55
2023-03-25T13:37:45.109Z,0.95
2023-03-25T13:40:31.771Z,1.90
2023-03-25T13:43:15.718Z,2.40
2023-03-25T13:45:56.207Z,1.75
2023-03-25T13:48:30.465Z,1.48
2023-03-25T13:51:03.354Z,2.20
2023-03-25T13:53:57.741Z,2.00
2023-03-25T13:56:31.754Z,1.65
2023-03-25T13:59:11.243Z,1.80
2023-03-25T14:01:44.123Z,1.40
2023-03-25T14:04:51.300Z,1.40
2023-03-25T14:07:34.244Z,1.55
2023-03-25T14:10:13.542Z,1.25
2023-03-25T14:12:52.507Z,2.70
2023-03-25T14:15:24.906Z,1.80
2023-03-25T14:17:54.384Z,1.55
2023-03-25T14:20:27.155Z,1.10
2023-03-25T14:23:01.970Z,1.55
2023-03-25T14:25:45.127Z,1.17
2023-03-25T14:28:19.661Z,1.27
2023-03-25T14:31:10.884Z,1.42
2023-03-25T14:34:12.703Z,1.48
2023-03-25T14:36:40.165Z,1.23
2023-03-25T14:39:29.616Z,1.42
2023-03-25T14:42:09.852Z,1.90
2023-03-25T14:44:41.677Z,1.70
2023-03-25T14:47:21.086Z,1.40
2023-03-25T14:50:16.692Z,1.88
2023-03-25T14:52:46.110Z,2.00
2023-03-25T14:55:47.326Z,1.70
2023-03-25T14:58:29.124Z,1.60
2023-03-25T15:01:04.954Z,1.95
2023-03-25T15:03:44.028Z,1.65
2023-03-25T15:06:28.749Z,1.05
2023-03-25T15:08:59.933Z,1.88
2023-03-25T15:11:36.394Z,1.77
2023-03-25T15:14:07.839Z,2.22
2023-03-25T15:16:47.594Z,1.75
2023-03-25T15:19:19.865Z,0.80
2023-03-25T15:22:08.414Z,0.80
2023-03-25T15:24:43.133Z,0.70
2023-03-25T15:27:28.103Z,1.13
2023-03-25T15:30:29.294Z,1.30
2023-03-25T15:33:33.981Z,1.73
2023-03-25T15:36:30.119Z,1.13
2023-03-25T15:39:16.656Z,1.40
2023-03-25T15:42:02.646Z,1.10
2023-03-25T15:44:45.116Z,0.85
2023-03-25T15:47:42.052Z,0.88
2023-03-25T15:50:21.464Z,1.20
2023-03-25T15:53:41.444Z,1.10
2023-03-25T15:56:28.804Z,1.48
2023-03-25T15:59:14.862Z,1.90
2023-03-25T16:01:49.447Z,0.90
2023-03-25T16:04:46.279Z,1.13
2023-03-25T16:07:16.808Z,0.95
2023-03-25T16:09:50.468Z,1.05
2023-03-25T16:12:24.324Z,1.70
2023-03-25T16:14:56.325Z,2.80
2023-03-25T16:17:33.513Z,1.30
2023-03-25T16:22:43.068Z,1.50
2023-03-25T16:25:21.555Z,1.45
2023-03-25T16:28:12.733Z,1.10
2023-03-25T16:30:48.828Z,1.52
2023-03-25T16:33:21.756Z,1.13
2023-03-25T16:36:32.939Z,1.80
2023-03-25T16:39:01.275Z,1.33
2023-03-25T16:41:30.824Z,3.28
2023-03-25T16:44:09.273Z,1.88
2023-03-25T16:56:50.070Z,1.75
2023-03-25T16:59:27.030Z,1.17
2023-03-25T17:02:02.750Z,2.58
2023-03-25T17:04:42.562Z,2.25
2023-03-25T17:07:25.635Z,1.38
2023-03-25T17:10:08.134Z,1.80
2023-03-25T17:13:34.491Z,1.80
2023-03-25T17:16:05.441Z,2.13
2023-03-25T17:18:41.923Z,1.67
2023-03-25T17:21:15.385Z,2.30
2023-03-25T17:23:52.006Z,2.67
2023-03-25T17:26:28.196Z,2.35
2023-03-25T17:29:38.254Z,2.72
2023-03-25T17:32:22.881Z,2.83
2023-03-25T17:35:46.912Z,3.05
2023-03-25T17:38:26.573Z,2.22
2023-03-25T17:41:05.243Z,2.70
2023-03-25T17:43:37.107Z,2.63
2023-03-25T17:46:09.762Z,3.15
2023-03-25T17:48:41.147Z,3.30
2023-03-25T17:51:13.071Z,3.05
2023-03-25T17:53:40.421Z,3.33
2023-03-25T17:56:10.080Z,2.88
2023-03-25T17:58:37.578Z,2.78
2023-03-25T18:01:05.509Z,3.83
2023-03-25T18:03:35.255Z,3.78
2023-03-25T18:06:02.762Z,3.97
2023-03-25T18:08:30.447Z,4.75
2023-03-25T18:10:59.053Z,3.67
2023-03-25T18:13:27.971Z,5.45
2023-03-25T18:16:00.347Z,4.70
2023-03-25T18:18:32.535Z,3.78
2023-03-25T18:21:03.863Z,4.63
2023-03-25T18:23:32.078Z,2.63
2023-03-25T18:26:00.459Z,3.90
2023-03-25T18:28:28.349Z,4.00
2023-03-25T18:31:00.255Z,2.63
2023-03-25T18:33:28.759Z,4.00
2023-03-25T18:35:59.636Z,5.28
2023-03-25T18:38:31.105Z,3.67
2023-03-25T18:40:58.777Z,3.65
2023-03-25T18:43:26.395Z,6.45
2023-03-25T18:45:54.275Z,3.40
2023-03-25T18:48:22.812Z,4.88
2023-03-25T18:51:00.848Z,4.28
2023-03-25T18:53:30.014Z,6.22
2023-03-25T18:56:00.997Z,6.03
2023-03-25T18:58:31.315Z,4.00
2023-03-25T19:01:07.855Z,4.65
2023-03-25T19:03:41.486Z,9.27
2023-03-25T19:06:12.026Z,7.72
2023-03-25T19:08:41.805Z,5.65
2023-03-25T19:11:21.080Z,6.18
2023-03-25T19:13:51.450Z,4.80
2023-03-25T19:16:20.351Z,6.78
2023-03-25T19:18:51.490Z,4.85
2023-03-25T19:21:21.646Z,5.32
2023-03-25T19:23:52.629Z,4.82
2023-03-25T19:26:28.905Z,6.05
2023-03-25T19:28:56.390Z,4.35
2023-03-25T19:31:25.453Z,5.18
2023-03-25T19:33:53.064Z,5.75
2023-03-25T19:36:23.272Z,3.97
2023-03-25T19:38:53.253Z,5.78
2023-03-25T19:41:20.937Z,4.60
2023-03-25T19:43:48.376Z,5.22
2023-03-25T19:46:16.893Z,4.32
2023-03-25T19:48:44.174Z,3.92
2023-03-25T19:51:11.620Z,3.20
2023-03-25T19:53:39.674Z,4.60
2023-03-25T19:56:07.959Z,3.33
2023-03-25T19:58:37.953Z,5.97
2023-03-25T20:01:06.596Z,3.05
2023-03-25T20:03:36.364Z,2.72
2023-03-25T20:06:06.486Z,3.30
2023-03-25T20:08:36.421Z,3.60
2023-03-25T20:11:14.000Z,3.28
2023-03-25T20:13:41.491Z,2.78
2023-03-25T20:16:13.232Z,3.15
2023-03-25T20:18:41.618Z,2.92
2023-03-25T20:21:09.878Z,2.50
2023-03-25T20:23:38.563Z,2.97
2023-03-25T20:26:06.300Z,4.28
2023-03-25T20:28:33.833Z,2.95
2023-03-25T20:31:21.371Z,3.35
2023-03-25T20:33:50.374Z,3.60
2023-03-25T20:36:19.237Z,3.95
2023-03-25T20:38:56.659Z,3.65
2023-03-25T20:41:26.356Z,4.20
2023-03-25T20:43:54.415Z,3.42
2023-03-25T20:46:25.291Z,4.30
2023-03-25T20:48:53.215Z,3.83
2023-03-25T20:51:21.012Z,5.40
2023-03-25T20:53:48.614Z,3.92
2023-03-25T20:56:16.443Z,4.50
2023-03-25T20:58:44.102Z,4.35
2023-03-25T21:01:15.652Z,2.80
2023-03-25T21:03:43.189Z,3.42
2023-03-25T21:06:20.999Z,5.20
2023-03-25T21:08:51.367Z,3.30
2023-03-25T21:11:19.003Z,4.30
2023-03-25T21:13:46.574Z,4.78
2023-03-25T21:16:14.398Z,4.65
2023-03-25T21:18:42.732Z,3.50
2023-03-25T21:21:10.725Z,3.42
2023-03-25T21:23:42.969Z,3.83
2023-03-25T21:26:10.755Z,5.47
2023-03-25T21:28:38.760Z,4.63
2023-03-25T21:31:14.300Z,4.32
2023-03-25T21:33:41.782Z,5.88
2023-03-25T21:36:09.524Z,4.03
2023-03-25T21:38:37.348Z,4.57
2023-03-25T21:41:06.979Z,5.32
2023-03-25T21:43:35.918Z,4.68
2023-03-25T21:46:06.263Z,4.32
2023-03-25T21:48:38.121Z,4.40
2023-03-25T21:51:11.897Z,5.18
2023-03-25T21:53:46.274Z,6.57
2023-03-25T21:56:17.309Z,5.70
2023-03-25T21:58:45.630Z,6.88
2023-03-25T22:01:15.844Z,6.40
2023-03-25T22:03:46.808Z,6.65
2023-03-25T22:06:16.879Z,5.13
2023-03-25T22:08:44.969Z,6.90
2023-03-25T22:11:18.088Z,6.65
2023-03-25T22:13:46.452Z,5.50
2023-03-25T22:16:15.660Z,6.85
2023-03-25T22:18:44.030Z,6.68
2023-03-25T22:21:17.258Z,7.18
2023-03-25T22:23:46.862Z,4.82
2023-03-25T22:26:16.620Z,6.72
2023-03-25T22:28:44.544Z,5.90
2023-03-25T22:31:18.294Z,5.00
2023-03-25T22:33:46.653Z,5.85
2023-03-25T22:36:16.333Z,6.30
2023-03-25T22:38:47.812Z,7.88
2023-03-25T22:41:16.646Z,6.75
2023-03-25T22:43:46.968Z,5.93
2023-03-25T22:46:15.387Z,6.88
2023-03-25T22:48:42.905Z,6.22
2023-03-25T22:51:16.193Z,6.35
2023-03-25T22:53:44.003Z,5.75
2023-03-25T22:56:11.836Z,4.75
2023-03-25T22:58:40.092Z,7.68
2023-03-25T23:01:18.586Z,7.35
2023-03-25T23:03:46.155Z,7.80
2023-03-25T23:06:14.431Z,7.00
2023-03-25T23:08:42.896Z,6.53
2023-03-25T23:11:16.868Z,8.23
2023-03-25T23:13:48.409Z,7.38
2023-03-25T23:16:18.892Z,7.43
2023-03-25T23:18:54.784Z,5.90
2023-03-25T23:21:25.523Z,6.93
2023-03-25T23:23:54.983Z,12.38
2023-03-25T23:26:26.336Z,6.63
2023-03-25T23:28:57.042Z,7.75
2023-03-25T23:31:28.244Z,7.72
2023-03-25T23:33:58.707Z,11.50
2023-03-25T23:36:28.580Z,7.28
2023-03-25T23:38:55.979Z,8.63
2023-03-25T23:41:23.642Z,8.93
2023-03-25T23:43:52.657Z,8.00
2023-03-25T23:46:21.843Z,7.65
2023-03-25T23:48:49.925Z,7.80
2023-03-25T23:51:20.349Z,8.50
2023-03-25T23:53:49.835Z,9.60
2023-03-25T23:56:19.512Z,9.68
2023-03-25T23:58:46.833Z,8.98
